createdAt,value
2023-04-11T00:03:30.525Z,7.98
2023-04-11T00:08:32.319Z,7.97
2023-04-11T00:13:30.253Z,7.97
2023-04-11T00:18:32.508Z,7.94
2023-04-11T00:23:31.490Z,7.96
2023-04-11T00:28:33.160Z,7.98
2023-04-11T00:33:30.135Z,7.99
2023-04-11T00:38:31.355Z,8
2023-04-11T00:43:29.972Z,8.03
2023-04-11T00:48:36.117Z,8.03
2023-04-11T00:53:35.323Z,8.1
2023-04-11T00:58:30.077Z,8.08
2023-04-11T01:03:31.613Z,8.02
2023-04-11T01:08:31.629Z,7.96
2023-04-11T01:13:30.090Z,7.9
2023-04-11T01:18:30.126Z,7.85
2023-04-11T01:23:30.119Z,7.81
2023-04-11T01:28:29.997Z,7.77
2023-04-11T01:33:30.137Z,7.71
2023-04-11T01:38:30.111Z,7.66
2023-04-11T01:43:29.903Z,7.62
2023-04-11T01:48:33.296Z,7.6
2023-04-11T01:53:30.027Z,7.58
2023-04-11T01:58:29.908Z,7.59
2023-04-11T02:03:33.556Z,7.6
2023-04-11T02:08:29.887Z,7.56
2023-04-11T02:13:30.286Z,7.58
2023-04-11T02:18:32.252Z,7.59
2023-04-11T02:23:30.322Z,7.57
2023-04-11T02:28:29.824Z,7.58
2023-04-11T02:33:29.786Z,7.59
2023-04-11T02:38:30.166Z,7.58
2023-04-11T02:43:30.046Z,7.61
2023-04-11T02:48:29.813Z,7.57
2023-04-11T02:53:30.596Z,7.6
2023-04-11T02:58:31.660Z,7.57
2023-04-11T03:03:33.614Z,7.58
2023-04-11T03:08:29.766Z,7.6
2023-04-11T03:13:31.208Z,7.59
2023-04-11T03:18:30.186Z,7.56
2023-04-11T03:23:32.636Z,7.49
2023-04-11T03:28:30.517Z,7.45
2023-04-11T03:33:30.115Z,7.4
2023-04-11T03:38:30.134Z,7.35
2023-04-11T03:43:31.564Z,7.31
2023-04-11T03:48:31.174Z,7.28
2023-04-11T03:53:37.897Z,7.27
2023-04-11T03:58:37.220Z,7.22
2023-04-11T04:03:30.172Z,7.17
2023-04-11T04:08:37.555Z,7.12
2023-04-11T04:13:36.229Z,7.06
2023-04-11T04:18:30.653Z,6.98
2023-04-11T04:23:30.057Z,6.95
2023-04-11T04:28:29.873Z,6.93
2023-04-11T04:33:36.156Z,6.86
2023-04-11T04:38:31.150Z,6.81
2023-04-11T04:43:32.592Z,6.75
2023-04-11T04:48:31.344Z,6.7
2023-04-11T04:53:30.101Z,6.68
2023-04-11T04:58:30.022Z,6.64
2023-04-11T05:03:35.114Z,6.56
2023-04-11T05:08:36.428Z,6.56
2023-04-11T05:13:29.766Z,6.54
2023-04-11T05:18:35.396Z,6.54
2023-04-11T05:23:30.287Z,6.55
2023-04-11T05:28:29.816Z,6.55
2023-04-11T05:33:32.054Z,6.56
2023-04-11T05:38:36.065Z,6.62
2023-04-11T05:43:38.137Z,6.58
2023-04-11T05:48:30.058Z,6.62
2023-04-11T05:53:32.787Z,6.63
2023-04-11T05:58:34.731Z,6.8
2023-04-11T06:03:32.456Z,7.09
2023-04-11T06:08:34.697Z,7.42
2023-04-11T06:13:31.937Z,7.53
2023-04-11T06:18:42.853Z,7.83
2023-04-11T06:23:33.962Z,8.01
2023-04-11T06:28:32.767Z,8.17
2023-04-11T06:33:29.980Z,8.37
2023-04-11T06:38:30.012Z,8.37
2023-04-11T06:43:29.905Z,8.29
2023-04-11T06:48:29.973Z,8.19
2023-04-11T06:53:30.091Z,8.29
2023-04-11T06:58:30.258Z,8.44
2023-04-11T07:03:30.994Z,8.76
2023-04-11T07:08:31.360Z,9.01
2023-04-11T07:13:29.903Z,9.1
2023-04-11T07:18:31.101Z,9.01
2023-04-11T07:23:32.909Z,8.92
2023-04-11T07:28:31.215Z,8.84
2023-04-11T07:33:29.897Z,8.85
2023-04-11T07:38:33.370Z,8.91
2023-04-11T07:43:31.253Z,8.88
2023-04-11T07:48:30.935Z,8.94
2023-04-11T07:53:31.147Z,9.07
2023-04-11T07:58:35.605Z,9.3
2023-04-11T08:03:33.219Z,9.46
2023-04-11T08:08:43.486Z,9.74
2023-04-11T08:13:35.995Z,9.7
2023-04-11T08:18:33.632Z,9.67
2023-04-11T08:23:30.202Z,9.76
2023-04-11T08:28:33.864Z,10.13
2023-04-11T08:33:41.238Z,10.23
2023-04-11T08:38:37.786Z,10.31
2023-04-11T08:43:41.039Z,10.61
2023-04-11T08:48:38.809Z,10.74
2023-04-11T08:53:47.892Z,10.84
2023-04-11T08:58:30.818Z,10.89
2023-04-11T09:03:32.811Z,10.94
2023-04-11T09:08:40.471Z,11.38
2023-04-11T09:13:34.426Z,11.63
2023-04-11T09:18:41.567Z,11.77
2023-04-11T09:23:33.602Z,12.05
2023-04-11T09:28:29.846Z,12.47
2023-04-11T09:33:32.252Z,12.88
2023-04-11T09:38:41.701Z,12.9
2023-04-11T09:43:36.001Z,12.92
2023-04-11T09:48:45.440Z,13.29
2023-04-11T09:53:37.209Z,13.52
2023-04-11T09:58:31.849Z,13.68
2023-04-11T10:03:32.120Z,13.87
2023-04-11T10:08:35.909Z,14.14
2023-04-11T10:13:54.936Z,14.17
2023-04-11T10:18:30.958Z,14.44
2023-04-11T10:23:30.056Z,14.49
2023-04-11T10:28:42.704Z,14.47
2023-04-11T10:33:29.986Z,14.63
2023-04-11T10:38:41.193Z,14.82
2023-04-11T10:43:30.064Z,14.88
2023-04-11T10:48:32.477Z,14.93
2023-04-11T10:53:44.304Z,14.88
2023-04-11T10:58:38.486Z,14.99
2023-04-11T11:03:32.489Z,15.11
2023-04-11T11:08:35.693Z,15.13
2023-04-11T11:13:39.826Z,15.15
2023-04-11T11:18:31.135Z,15.22
2023-04-11T11:23:32.374Z,15.29
2023-04-11T11:28:35.225Z,15.56
2023-04-11T11:33:30.293Z,15.61
2023-04-11T11:38:30.608Z,15.62
2023-04-11T11:43:30.645Z,15.66
2023-04-11T11:48:31.236Z,15.61
2023-04-11T11:53:30.189Z,15.23
2023-04-11T11:58:35.825Z,15.59
2023-04-11T12:03:34.434Z,15.54
2023-04-11T12:08:34.148Z,15.84
2023-04-11T12:13:31.078Z,16.05
2023-04-11T12:18:34.662Z,15.82
2023-04-11T12:23:30.118Z,15.99
2023-04-11T12:28:29.886Z,16.02
2023-04-11T12:33:29.942Z,15.93
2023-04-11T12:38:36.843Z,16.06
2023-04-11T12:43:29.859Z,16.05
2023-04-11T12:48:44.049Z,16.37
2023-04-11T12:53:29.857Z,16.5
2023-04-11T12:58:31.995Z,16.59
2023-04-11T13:03:30.044Z,16.5
2023-04-11T13:08:31.755Z,16.77
2023-04-11T13:13:31.078Z,16.71
2023-04-11T13:18:31.850Z,16.84
2023-04-11T13:23:32.432Z,16.75
2023-04-11T13:28:40.919Z,16.67
2023-04-11T13:33:34.056Z,16.82
2023-04-11T13:38:32.473Z,16.75
2023-04-11T13:43:29.788Z,16.52
2023-04-11T13:48:32.370Z,16.54
2023-04-11T13:53:30.824Z,16.55
2023-04-11T13:58:33.328Z,16.51
2023-04-11T14:03:33.677Z,16.45
2023-04-11T14:08:34.232Z,16.18
2023-04-11T14:13:32.385Z,16.41
2023-04-11T14:18:29.741Z,16.55
2023-04-11T14:23:29.844Z,16.56
2023-04-11T14:28:32.704Z,16.69
2023-04-11T14:33:32.441Z,16.46
2023-04-11T14:38:31.441Z,16.22
2023-04-11T14:43:29.696Z,15.99
2023-04-11T14:48:32.306Z,16
2023-04-11T14:53:29.927Z,15.83
2023-04-11T14:58:29.848Z,15.74
2023-04-11T15:03:31.443Z,15.92
2023-04-11T15:08:29.881Z,15.74
2023-04-11T15:13:31.297Z,15.65
2023-04-11T15:18:30.904Z,15.46
2023-04-11T15:23:33.666Z,15.63
2023-04-11T15:28:36.466Z,15.6
2023-04-11T15:33:31.302Z,15.5
2023-04-11T15:38:30.765Z,15.39
2023-04-11T15:43:32.989Z,15.36
2023-04-11T15:48:29.877Z,15.26
2023-04-11T15:53:29.920Z,15.17
2023-04-11T15:58:31.882Z,14.98
2023-04-11T16:03:36.008Z,14.88
2023-04-11T16:08:47.714Z,14.69
2023-04-11T16:13:32.605Z,14.68
2023-04-11T16:18:31.833Z,14.62
2023-04-11T16:23:30.960Z,14.58
2023-04-11T16:28:31.032Z,14.54
2023-04-11T16:33:30.153Z,14.56
2023-04-11T16:38:31.814Z,14.56
2023-04-11T16:43:30.393Z,14.42
2023-04-11T16:48:30.702Z,14.24
2023-04-11T16:53:31.712Z,14.15
2023-04-11T16:58:29.950Z,14.16
2023-04-11T17:03:30.067Z,14
2023-04-11T17:08:30.748Z,13.87
2023-04-11T17:13:32.645Z,13.67
2023-04-11T17:18:29.599Z,13.48
2023-04-11T17:23:42.596Z,13.27
2023-04-11T17:28:32.532Z,13.09
2023-04-11T17:33:32.493Z,12.94
2023-04-11T17:38:29.826Z,12.77
2023-04-11T17:43:30.288Z,12.64
2023-04-11T17:48:29.908Z,12.53
2023-04-11T17:53:32.763Z,12.44
2023-04-11T17:58:32.015Z,12.31
2023-04-11T18:03:34.977Z,12.19
2023-04-11T18:08:49.847Z,12.06
2023-04-11T18:13:32.357Z,11.92
2023-04-11T18:18:30.044Z,11.78
2023-04-11T18:23:31.271Z,11.66
2023-04-11T18:28:30.652Z,11.54
2023-04-11T18:33:29.788Z,11.4
2023-04-11T18:38:30.666Z,11.28
2023-04-11T18:43:29.757Z,11.17
2023-04-11T18:48:34.474Z,11.09
2023-04-11T18:53:30.964Z,11.02
2023-04-11T18:58:34.173Z,10.91
2023-04-11T19:03:30.400Z,10.81
2023-04-11T19:08:30.128Z,10.72
2023-04-11T19:13:29.669Z,10.65
2023-04-11T19:18:30.074Z,10.56
2023-04-11T19:23:29.697Z,10.48
2023-04-11T19:28:29.936Z,10.43
2023-04-11T19:33:31.186Z,10.38
2023-04-11T19:38:34.754Z,10.33
2023-04-11T19:43:29.796Z,10.27
2023-04-11T19:48:35.125Z,10.2
2023-04-11T19:53:35.246Z,10.15
2023-04-11T19:58:30.128Z,10.09
2023-04-11T20:03:30.059Z,10.06
2023-04-11T20:08:36.629Z,9.99
2023-04-11T20:13:29.627Z,9.94
2023-04-11T20:18:30.174Z,9.89
2023-04-11T20:23:31.323Z,9.86
2023-04-11T20:28:30.473Z,9.8
2023-04-11T20:33:30.961Z,9.76
2023-04-11T20:38:31.253Z,9.71
2023-04-11T20:43:31.022Z,9.69
2023-04-11T20:48:34.383Z,9.68
2023-04-11T20:53:29.591Z,9.67
2023-04-11T20:58:32.636Z,9.66
2023-04-11T21:03:31.571Z,9.65
2023-04-11T21:08:30.208Z,9.62
2023-04-11T21:13:33.655Z,9.62
2023-04-11T21:18:31.627Z,9.62
2023-04-11T21:23:31.484Z,9.64
2023-04-11T21:28:29.832Z,9.63
2023-04-11T21:33:29.764Z,9.6
2023-04-11T21:38:32.962Z,9.61
2023-04-11T21:43:29.773Z,9.65
2023-04-11T21:48:29.833Z,9.64
2023-04-11T21:53:30.465Z,9.66
2023-04-11T21:58:30.103Z,9.68
2023-04-11T22:03:29.917Z,9.67
2023-04-11T22:08:29.533Z,9.64
2023-04-11T22:13:33.797Z,9.62
2023-04-11T22:18:35.995Z,9.58
2023-04-11T22:23:33.112Z,9.53
2023-04-11T22:28:29.809Z,9.5
2023-04-11T22:33:29.860Z,9.45
2023-04-11T22:38:34.487Z,9.4
2023-04-11T22:43:30.559Z,9.37
2023-04-11T22:48:29.807Z,9.33
2023-04-11T22:53:32.394Z,9.27
2023-04-11T22:58:29.799Z,9.2
2023-04-11T23:03:29.965Z,9.18
2023-04-11T23:08:29.915Z,9.15
2023-04-11T23:13:29.879Z,9.11
2023-04-11T23:18:34.696Z,9.09
2023-04-11T23:23:32.766Z,9.05
2023-04-11T23:28:29.684Z,9.02
2023-04-11T23:33:31.229Z,9
2023-04-11T23:38:29.815Z,8.98
2023-04-11T23:43:30.362Z,8.92
2023-04-11T23:48:29.850Z,8.91
2023-04-11T23:53:29.544Z,8.88
2023-04-11T23:58:29.734Z,8.83
